sensor_id;sensor_type;location;lat;lon;timestamp;P1;durP1;ratioP1;P2;durP2;ratioP2
42964;SDS011;28604;51.204;22.552;2022-10-19T00:01:16;8.75;;;7.95;;
42964;SDS011;28604;51.204;22.552;2022-10-19T00:03:47;9.48;;;6.88;;
42964;SDS011;28604;51.204;22.552;2022-10-19T00:06:16;7.65;;;6.88;;
42964;SDS011;28604;51.204;22.552;2022-10-19T00:08:50;9.57;;;7.78;;
42964;SDS011;28604;51.204;22.552;2022-10-19T00:11:20;7.63;;;6.18;;
42964;SDS011;28604;51.204;22.552;2022-10-19T00:13:48;7.60;;;6.47;;
42964;SDS011;28604;51.204;22.552;2022-10-19T00:16:14;6.82;;;6.10;;
42964;SDS011;28604;51.204;22.552;2022-10-19T00:18:42;6.20;;;4.88;;
42964;SDS011;28604;51.204;22.552;2022-10-19T00:21:11;7.13;;;4.95;;
42964;SDS011;28604;51.204;22.552;2022-10-19T00:23:39;5.25;;;4.75;;
42964;SDS011;28604;51.204;22.552;2022-10-19T00:26:06;5.93;;;4.85;;
42964;SDS011;28604;51.204;22.552;2022-10-19T00:28:32;6.75;;;4.50;;
42964;SDS011;28604;51.204;22.552;2022-10-19T00:31:02;4.65;;;4.25;;
42964;SDS011;28604;51.204;22.552;2022-10-19T00:33:30;4.30;;;3.97;;
42964;SDS011;28604;51.204;22.552;2022-10-19T00:35:56;4.55;;;4.05;;
42964;SDS011;28604;51.204;22.552;2022-10-19T00:38:22;5.55;;;3.67;;
42964;SDS011;28604;51.204;22.552;2022-10-19T00:40:48;4.07;;;3.78;;
42964;SDS011;28604;51.204;22.552;2022-10-19T00:45:41;3.47;;;3.22;;
42964;SDS011;28604;51.204;22.552;2022-10-19T00:48:08;5.00;;;4.60;;
42964;SDS011;28604;51.204;22.552;2022-10-19T00:50:37;5.18;;;4.00;;
42964;SDS011;28604;51.204;22.552;2022-10-19T00:53:04;3.90;;;3.47;;
42964;SDS011;28604;51.204;22.552;2022-10-19T00:55:30;4.40;;;4.00;;
42964;SDS011;28604;51.204;22.552;2022-10-19T00:57:57;4.35;;;4.05;;
42964;SDS011;28604;51.204;22.552;2022-10-19T01:00:23;6.72;;;4.80;;
42964;SDS011;28604;51.204;22.552;2022-10-19T01:02:49;6.70;;;4.60;;
42964;SDS011;28604;51.204;22.552;2022-10-19T01:05:15;6.45;;;5.03;;
42964;SDS011;28604;51.204;22.552;2022-10-19T01:07:42;4.85;;;4.45;;
42964;SDS011;28604;51.204;22.552;2022-10-19T01:10:09;5.38;;;4.97;;
42964;SDS011;28604;51.204;22.552;2022-10-19T01:12:42;4.68;;;4.35;;
42964;SDS011;28604;51.204;22.552;2022-10-19T01:15:40;6.07;;;5.00;;
42964;SDS011;28604;51.204;22.552;2022-10-19T01:18:20;4.82;;;4.32;;
42964;SDS011;28604;51.204;22.552;2022-10-19T01:21:02;4.70;;;4.28;;
42964;SDS011;28604;51.204;22.552;2022-10-19T01:24:11;5.50;;;4.97;;
42964;SDS011;28604;51.204;22.552;2022-10-19T01:29:29;7.25;;;4.25;;
42964;SDS011;28604;51.204;22.552;2022-10-19T01:35:10;6.65;;;4.22;;
42964;SDS011;28604;51.204;22.552;2022-10-19T01:37:48;4.40;;;4.00;;
42964;SDS011;28604;51.204;22.552;2022-10-19T01:40:43;4.53;;;4.13;;
42964;SDS011;28604;51.204;22.552;2022-10-19T01:48:22;5.03;;;4.57;;
42964;SDS011;28604;51.204;22.552;2022-10-19T01:50:54;8.00;;;4.60;;
42964;SDS011;28604;51.204;22.552;2022-10-19T01:53:29;6.80;;;4.28;;
42964;SDS011;28604;51.204;22.552;2022-10-19T01:55:58;5.88;;;4.70;;
42964;SDS011;28604;51.204;22.552;2022-10-19T01:58:27;5.03;;;4.57;;
42964;SDS011;28604;51.204;22.552;2022-10-19T02:00:59;6.22;;;4.88;;
42964;SDS011;28604;51.204;22.552;2022-10-19T02:03:28;4.97;;;4.45;;
42964;SDS011;28604;51.204;22.552;2022-10-19T02:05:55;9.20;;;5.03;;
42964;SDS011;28604;51.204;22.552;2022-10-19T02:08:23;4.80;;;4.38;;
42964;SDS011;28604;51.204;22.552;2022-10-19T02:11:06;4.65;;;4.35;;
42964;SDS011;28604;51.204;22.552;2022-10-19T02:13:32;5.95;;;4.25;;
42964;SDS011;28604;51.204;22.552;2022-10-19T02:16:00;4.07;;;3.78;;
42964;SDS011;28604;51.204;22.552;2022-10-19T02:18:32;3.83;;;3.50;;
42964;SDS011;28604;51.204;22.552;2022-10-19T02:21:02;3.67;;;3.40;;
42964;SDS011;28604;51.204;22.552;2022-10-19T02:23:29;4.20;;;3.90;;
42964;SDS011;28604;51.204;22.552;2022-10-19T02:25:55;7.97;;;4.70;;
42964;SDS011;28604;51.204;22.552;2022-10-19T02:28:25;7.78;;;4.45;;
42964;SDS011;28604;51.204;22.552;2022-10-19T02:30:53;5.15;;;4.65;;
42964;SDS011;28604;51.204;22.552;2022-10-19T02:33:20;5.05;;;4.07;;
42964;SDS011;28604;51.204;22.552;2022-10-19T02:35:46;6.35;;;4.85;;
42964;SDS011;28604;51.204;22.552;2022-10-19T02:38:13;5.03;;;4.43;;
42964;SDS011;28604;51.204;22.552;2022-10-19T02:40:44;9.27;;;5.07;;
42964;SDS011;28604;51.204;22.552;2022-10-19T02:43:20;9.45;;;4.78;;
42964;SDS011;28604;51.204;22.552;2022-10-19T02:45:54;7.40;;;5.00;;
42964;SDS011;28604;51.204;22.552;2022-10-19T02:48:28;5.38;;;4.88;;
42964;SDS011;28604;51.204;22.552;2022-10-19T02:50:56;7.32;;;4.72;;
42964;SDS011;28604;51.204;22.552;2022-10-19T02:53:22;5.18;;;4.60;;
42964;SDS011;28604;51.204;22.552;2022-10-19T02:55:48;6.78;;;5.10;;
42964;SDS011;28604;51.204;22.552;2022-10-19T02:58:14;5.75;;;5.22;;
42964;SDS011;28604;51.204;22.552;2022-10-19T03:00:40;9.13;;;5.13;;
42964;SDS011;28604;51.204;22.552;2022-10-19T03:03:07;8.80;;;5.15;;
42964;SDS011;28604;51.204;22.552;2022-10-19T03:05:33;6.50;;;4.65;;
42964;SDS011;28604;51.204;22.552;2022-10-19T03:07:59;9.27;;;5.30;;
42964;SDS011;28604;51.204;22.552;2022-10-19T03:10:25;8.68;;;5.18;;
42964;SDS011;28604;51.204;22.552;2022-10-19T03:12:51;7.22;;;5.35;;
42964;SDS011;28604;51.204;22.552;2022-10-19T03:15:17;7.93;;;5.45;;
42964;SDS011;28604;51.204;22.552;2022-10-19T03:17:44;10.90;;;5.57;;
42964;SDS011;28604;51.204;22.552;2022-10-19T03:20:10;6.03;;;4.70;;
42964;SDS011;28604;51.204;22.552;2022-10-19T03:22:36;7.65;;;4.95;;
42964;SDS011;28604;51.204;22.552;2022-10-19T03:25:02;14.05;;;7.45;;
42964;SDS011;28604;51.204;22.552;2022-10-19T03:27:28;6.65;;;5.45;;
42964;SDS011;28604;51.204;22.552;2022-10-19T03:29:54;10.18;;;5.82;;
42964;SDS011;28604;51.204;22.552;2022-10-19T03:32:20;10.23;;;5.70;;
42964;SDS011;28604;51.204;22.552;2022-10-19T03:34:46;7.03;;;5.13;;
42964;SDS011;28604;51.204;22.552;2022-10-19T03:37:12;7.95;;;5.32;;
42964;SDS011;28604;51.204;22.552;2022-10-19T03:39:39;6.05;;;4.75;;
42964;SDS011;28604;51.204;22.552;2022-10-19T03:42:05;6.97;;;5.35;;
42964;SDS011;28604;51.204;22.552;2022-10-19T03:44:31;7.47;;;5.90;;
42964;SDS011;28604;51.204;22.552;2022-10-19T03:46:57;12.05;;;6.25;;
42964;SDS011;28604;51.204;22.552;2022-10-19T03:49:23;8.10;;;5.13;;
42964;SDS011;28604;51.204;22.552;2022-10-19T03:51:49;6.13;;;5.45;;
42964;SDS011;28604;51.204;22.552;2022-10-19T03:54:15;7.75;;;5.38;;
42964;SDS011;28604;51.204;22.552;2022-10-19T03:56:41;7.25;;;5.63;;
42964;SDS011;28604;51.204;22.552;2022-10-19T03:59:09;9.43;;;4.90;;
42964;SDS011;28604;51.204;22.552;2022-10-19T04:01:39;11.75;;;5.80;;
42964;SDS011;28604;51.204;22.552;2022-10-19T04:04:12;11.98;;;6.00;;
42964;SDS011;28604;51.204;22.552;2022-10-19T04:06:40;9.90;;;6.47;;
42964;SDS011;28604;51.204;22.552;2022-10-19T04:09:08;9.05;;;6.72;;
42964;SDS011;28604;51.204;22.552;2022-10-19T04:11:38;9.13;;;6.10;;
42964;SDS011;28604;51.204;22.552;2022-10-19T04:14:04;7.95;;;5.95;;
42964;SDS011;28604;51.204;22.552;2022-10-19T04:16:30;11.43;;;6.88;;
42964;SDS011;28604;51.204;22.552;2022-10-19T04:18:57;10.57;;;6.28;;
42964;SDS011;28604;51.204;22.552;2022-10-19T04:21:24;15.85;;;7.45;;
42964;SDS011;28604;51.204;22.552;2022-10-19T04:24:00;7.47;;;6.50;;
42964;SDS011;28604;51.204;22.552;2022-10-19T04:26:28;9.95;;;6.50;;
42964;SDS011;28604;51.204;22.552;2022-10-19T04:28:57;18.00;;;7.53;;
42964;SDS011;28604;51.204;22.552;2022-10-19T04:31:25;9.85;;;7.05;;
42964;SDS011;28604;51.204;22.552;2022-10-19T04:33:52;14.20;;;7.20;;
42964;SDS011;28604;51.204;22.552;2022-10-19T04:36:18;17.27;;;7.22;;
42964;SDS011;28604;51.204;22.552;2022-10-19T04:38:44;11.50;;;6.47;;
42964;SDS011;28604;51.204;22.552;2022-10-19T04:41:11;10.95;;;7.78;;
42964;SDS011;28604;51.204;22.552;2022-10-19T04:43:38;12.13;;;7.25;;
42964;SDS011;28604;51.204;22.552;2022-10-19T04:46:06;11.90;;;6.95;;
42964;SDS011;28604;51.204;22.552;2022-10-19T04:48:34;19.05;;;8.05;;
42964;SDS011;28604;51.204;22.552;2022-10-19T04:51:02;16.20;;;7.70;;
42964;SDS011;28604;51.204;22.552;2022-10-19T04:53:28;11.30;;;6.85;;
42964;SDS011;28604;51.204;22.552;2022-10-19T04:55:55;14.68;;;7.15;;
42964;SDS011;28604;51.204;22.552;2022-10-19T04:58:21;13.45;;;7.35;;
42964;SDS011;28604;51.204;22.552;2022-10-19T05:00:47;9.32;;;6.80;;
42964;SDS011;28604;51.204;22.552;2022-10-19T05:03:13;19.75;;;8.48;;
42964;SDS011;28604;51.204;22.552;2022-10-19T05:05:39;14.88;;;7.53;;
42964;SDS011;28604;51.204;22.552;2022-10-19T05:08:06;11.52;;;7.32;;
42964;SDS011;28604;51.204;22.552;2022-10-19T05:10:32;16.95;;;8.52;;
42964;SDS011;28604;51.204;22.552;2022-10-19T05:12:59;16.00;;;7.68;;
42964;SDS011;28604;51.204;22.552;2022-10-19T05:15:27;18.65;;;8.00;;
42964;SDS011;28604;51.204;22.552;2022-10-19T05:17:53;14.13;;;7.95;;
42964;SDS011;28604;51.204;22.552;2022-10-19T05:20:19;13.00;;;8.88;;
42964;SDS011;28604;51.204;22.552;2022-10-19T05:22:46;11.32;;;7.70;;
42964;SDS011;28604;51.204;22.552;2022-10-19T05:25:12;9.85;;;7.30;;
42964;SDS011;28604;51.204;22.552;2022-10-19T05:27:38;13.95;;;8.90;;
42964;SDS011;28604;51.204;22.552;2022-10-19T05:30:04;12.32;;;7.90;;
42964;SDS011;28604;51.204;22.552;2022-10-19T05:32:32;13.32;;;8.27;;
42964;SDS011;28604;51.204;22.552;2022-10-19T05:34:58;20.10;;;8.65;;
42964;SDS011;28604;51.204;22.552;2022-10-19T05:37:24;18.00;;;8.35;;
42964;SDS011;28604;51.204;22.552;2022-10-19T05:39:50;11.55;;;8.23;;
42964;SDS011;28604;51.204;22.552;2022-10-19T05:42:16;14.15;;;8.30;;
42964;SDS011;28604;51.204;22.552;2022-10-19T05:44:42;12.32;;;8.10;;
42964;SDS011;28604;51.204;22.552;2022-10-19T05:47:08;10.38;;;8.15;;
42964;SDS011;28604;51.204;22.552;2022-10-19T05:49:34;15.18;;;8.90;;
42964;SDS011;28604;51.204;22.552;2022-10-19T05:52:00;14.40;;;8.38;;
42964;SDS011;28604;51.204;22.552;2022-10-19T05:54:26;18.25;;;7.88;;
42964;SDS011;28604;51.204;22.552;2022-10-19T05:56:52;16.58;;;8.35;;
42964;SDS011;28604;51.204;22.552;2022-10-19T05:59:18;11.77;;;8.00;;
42964;SDS011;28604;51.204;22.552;2022-10-19T06:01:45;13.35;;;7.97;;
42964;SDS011;28604;51.204;22.552;2022-10-19T06:04:12;14.63;;;8.32;;
42964;SDS011;28604;51.204;22.552;2022-10-19T06:06:39;11.57;;;8.05;;
42964;SDS011;28604;51.204;22.552;2022-10-19T06:09:08;15.60;;;8.43;;
42964;SDS011;28604;51.204;22.552;2022-10-19T06:11:36;15.95;;;7.40;;
42964;SDS011;28604;51.204;22.552;2022-10-19T06:14:05;21.77;;;8.10;;
42964;SDS011;28604;51.204;22.552;2022-10-19T06:16:33;21.42;;;8.52;;
42964;SDS011;28604;51.204;22.552;2022-10-19T06:19:00;12.98;;;7.88;;
42964;SDS011;28604;51.204;22.552;2022-10-19T06:21:27;12.05;;;8.38;;
42964;SDS011;28604;51.204;22.552;2022-10-19T06:23:59;14.90;;;8.02;;
42964;SDS011;28604;51.204;22.552;2022-10-19T06:26:29;15.70;;;8.35;;
42964;SDS011;28604;51.204;22.552;2022-10-19T06:28:57;15.57;;;8.10;;
42964;SDS011;28604;51.204;22.552;2022-10-19T06:31:28;15.60;;;8.38;;
42964;SDS011;28604;51.204;22.552;2022-10-19T06:33:57;19.65;;;8.85;;
42964;SDS011;28604;51.204;22.552;2022-10-19T06:36:24;13.50;;;9.32;;
42964;SDS011;28604;51.204;22.552;2022-10-19T06:38:52;14.68;;;8.20;;
42964;SDS011;28604;51.204;22.552;2022-10-19T06:41:18;11.50;;;8.02;;
42964;SDS011;28604;51.204;22.552;2022-10-19T06:43:49;10.98;;;7.72;;
42964;SDS011;28604;51.204;22.552;2022-10-19T06:46:16;12.50;;;8.38;;
42964;SDS011;28604;51.204;22.552;2022-10-19T06:48:51;11.60;;;8.30;;
42964;SDS011;28604;51.204;22.552;2022-10-19T06:51:22;9.40;;;8.02;;
42964;SDS011;28604;51.204;22.552;2022-10-19T06:53:50;15.65;;;8.90;;
42964;SDS011;28604;51.204;22.552;2022-10-19T06:56:17;14.30;;;8.15;;
42964;SDS011;28604;51.204;22.552;2022-10-19T06:58:43;11.35;;;7.95;;
42964;SDS011;28604;51.204;22.552;2022-10-19T07:01:09;13.15;;;7.18;;
42964;SDS011;28604;51.204;22.552;2022-10-19T07:03:36;11.25;;;6.68;;
42964;SDS011;28604;51.204;22.552;2022-10-19T07:06:04;13.13;;;6.85;;
42964;SDS011;28604;51.204;22.552;2022-10-19T07:08:35;10.17;;;6.27;;
42964;SDS011;28604;51.204;22.552;2022-10-19T07:11:03;9.35;;;6.68;;
42964;SDS011;28604;51.204;22.552;2022-10-19T07:13:31;12.20;;;6.53;;
42964;SDS011;28604;51.204;22.552;2022-10-19T07:16:04;13.00;;;5.55;;
42964;SDS011;28604;51.204;22.552;2022-10-19T07:18:41;8.73;;;5.22;;
42964;SDS011;28604;51.204;22.552;2022-10-19T07:21:08;12.90;;;5.68;;
42964;SDS011;28604;51.204;22.552;2022-10-19T07:23:37;10.88;;;5.35;;
42964;SDS011;28604;51.204;22.552;2022-10-19T07:26:09;10.70;;;5.20;;
42964;SDS011;28604;51.204;22.552;2022-10-19T07:28:46;14.93;;;4.90;;
42964;SDS011;28604;51.204;22.552;2022-10-19T07:31:13;7.63;;;5.10;;
42964;SDS011;28604;51.204;22.552;2022-10-19T07:33:45;7.00;;;4.45;;
42964;SDS011;28604;51.204;22.552;2022-10-19T07:36:11;8.55;;;5.03;;
42964;SDS011;28604;51.204;22.552;2022-10-19T07:38:39;8.57;;;4.10;;
42964;SDS011;28604;51.204;22.552;2022-10-19T07:41:09;6.80;;;4.47;;
42964;SDS011;28604;51.204;22.552;2022-10-19T07:43:41;13.55;;;4.22;;
42964;SDS011;28604;51.204;22.552;2022-10-19T07:46:09;7.90;;;4.80;;
42964;SDS011;28604;51.204;22.552;2022-10-19T07:48:38;9.38;;;4.60;;
42964;SDS011;28604;51.204;22.552;2022-10-19T07:51:05;10.25;;;3.97;;
42964;SDS011;28604;51.204;22.552;2022-10-19T07:53:32;7.70;;;3.83;;
42964;SDS011;28604;51.204;22.552;2022-10-19T07:56:05;9.30;;;3.88;;
42964;SDS011;28604;51.204;22.552;2022-10-19T07:58:34;6.13;;;3.85;;
42964;SDS011;28604;51.204;22.552;2022-10-19T08:01:01;8.20;;;3.80;;
42964;SDS011;28604;51.204;22.552;2022-10-19T08:03:29;7.72;;;3.08;;
42964;SDS011;28604;51.204;22.552;2022-10-19T08:05:58;8.68;;;3.70;;
42964;SDS011;28604;51.204;22.552;2022-10-19T08:08:32;5.72;;;2.83;;
42964;SDS011;28604;51.204;22.552;2022-10-19T08:11:05;6.00;;;3.33;;
42964;SDS011;28604;51.204;22.552;2022-10-19T08:13:38;6.22;;;2.70;;
42964;SDS011;28604;51.204;22.552;2022-10-19T08:16:05;6.22;;;3.00;;
42964;SDS011;28604;51.204;22.552;2022-10-19T08:18:44;5.72;;;3.05;;
42964;SDS011;28604;51.204;22.552;2022-10-19T08:21:10;13.18;;;3.47;;
42964;SDS011;28604;51.204;22.552;2022-10-19T08:23:36;9.73;;;4.05;;
42964;SDS011;28604;51.204;22.552;2022-10-19T08:26:01;8.32;;;3.70;;
42964;SDS011;28604;51.204;22.552;2022-10-19T08:28:27;7.13;;;3.20;;
42964;SDS011;28604;51.204;22.552;2022-10-19T08:30:53;10.18;;;2.65;;
42964;SDS011;28604;51.204;22.552;2022-10-19T08:33:23;8.77;;;2.22;;
42964;SDS011;28604;51.204;22.552;2022-10-19T08:35:50;9.35;;;2.53;;
42964;SDS011;28604;51.204;22.552;2022-10-19T08:38:18;6.13;;;2.40;;
42964;SDS011;28604;51.204;22.552;2022-10-19T08:40:44;8.88;;;2.50;;
42964;SDS011;28604;51.204;22.552;2022-10-19T08:43:23;9.25;;;2.45;;
42964;SDS011;28604;51.204;22.552;2022-10-19T08:46:18;2.58;;;2.30;;
42964;SDS011;28604;51.204;22.552;2022-10-19T08:48:54;9.38;;;2.47;;
42964;SDS011;28604;51.204;22.552;2022-10-19T08:51:20;3.97;;;2.42;;
42964;SDS011;28604;51.204;22.552;2022-10-19T08:53:59;12.80;;;3.30;;
42964;SDS011;28604;51.204;22.552;2022-10-19T08:56:29;7.37;;;2.83;;
42964;SDS011;28604;51.204;22.552;2022-10-19T09:02:08;14.98;;;4.05;;
42964;SDS011;28604;51.204;22.552;2022-10-19T09:04:41;7.65;;;3.53;;
42964;SDS011;28604;51.204;22.552;2022-10-19T09:09:55;5.10;;;2.45;;
42964;SDS011;28604;51.204;22.552;2022-10-19T09:12:58;6.93;;;2.47;;
42964;SDS011;28604;51.204;22.552;2022-10-19T09:15:46;4.13;;;1.67;;
42964;SDS011;28604;51.204;22.552;2022-10-19T09:23:37;6.85;;;2.30;;
42964;SDS011;28604;51.204;22.552;2022-10-19T09:26:17;9.05;;;2.65;;
42964;SDS011;28604;51.204;22.552;2022-10-19T09:28:49;9.68;;;4.07;;
42964;SDS011;28604;51.204;22.552;2022-10-19T09:31:38;5.35;;;2.40;;
42964;SDS011;28604;51.204;22.552;2022-10-19T09:34:05;4.53;;;2.30;;
42964;SDS011;28604;51.204;22.552;2022-10-19T09:36:52;9.40;;;3.15;;
42964;SDS011;28604;51.204;22.552;2022-10-19T09:39:24;6.05;;;2.10;;
42964;SDS011;28604;51.204;22.552;2022-10-19T09:41:55;5.47;;;2.10;;
42964;SDS011;28604;51.204;22.552;2022-10-19T09:44:24;3.83;;;1.80;;
42964;SDS011;28604;51.204;22.552;2022-10-19T09:47:15;4.10;;;2.00;;
42964;SDS011;28604;51.204;22.552;2022-10-19T09:52:39;5.05;;;2.50;;
42964;SDS011;28604;51.204;22.552;2022-10-19T09:57:46;8.20;;;2.45;;
42964;SDS011;28604;51.204;22.552;2022-10-19T10:00:18;4.38;;;2.63;;
42964;SDS011;28604;51.204;22.552;2022-10-19T10:05:13;5.28;;;3.13;;
42964;SDS011;28604;51.204;22.552;2022-10-19T10:07:39;8.30;;;3.85;;
42964;SDS011;28604;51.204;22.552;2022-10-19T10:10:10;6.10;;;2.50;;
42964;SDS011;28604;51.204;22.552;2022-10-19T10:12:52;6.28;;;2.97;;
42964;SDS011;28604;51.204;22.552;2022-10-19T10:15:22;7.18;;;2.90;;
42964;SDS011;28604;51.204;22.552;2022-10-19T10:22:50;7.82;;;3.05;;
42964;SDS011;28604;51.204;22.552;2022-10-19T10:25:17;5.93;;;2.42;;
42964;SDS011;28604;51.204;22.552;2022-10-19T10:27:52;8.02;;;3.38;;
42964;SDS011;28604;51.204;22.552;2022-10-19T10:30:20;6.18;;;3.50;;
42964;SDS011;28604;51.204;22.552;2022-10-19T10:32:48;8.07;;;2.90;;
42964;SDS011;28604;51.204;22.552;2022-10-19T10:35:17;7.20;;;3.42;;
42964;SDS011;28604;51.204;22.552;2022-10-19T10:37:47;9.00;;;4.53;;
42964;SDS011;28604;51.204;22.552;2022-10-19T10:40:24;12.40;;;2.55;;
42964;SDS011;28604;51.204;22.552;2022-10-19T10:42:54;5.95;;;2.80;;
42964;SDS011;28604;51.204;22.552;2022-10-19T10:45:32;4.53;;;2.40;;
42964;SDS011;28604;51.204;22.552;2022-10-19T10:48:14;9.73;;;2.78;;
42964;SDS011;28604;51.204;22.552;2022-10-19T10:51:01;7.63;;;2.22;;
42964;SDS011;28604;51.204;22.552;2022-10-19T10:53:39;9.80;;;2.03;;
42964;SDS011;28604;51.204;22.552;2022-10-19T10:58:58;5.22;;;2.20;;
42964;SDS011;28604;51.204;22.552;2022-10-19T11:01:31;4.55;;;2.20;;
42964;SDS011;28604;51.204;22.552;2022-10-19T11:04:03;5.60;;;1.83;;
42964;SDS011;28604;51.204;22.552;2022-10-19T11:06:39;2.03;;;1.55;;
42964;SDS011;28604;51.204;22.552;2022-10-19T11:09:14;5.70;;;2.40;;
42964;SDS011;28604;51.204;22.552;2022-10-19T11:11:50;7.00;;;1.50;;
42964;SDS011;28604;51.204;22.552;2022-10-19T11:14:22;4.60;;;2.15;;
42964;SDS011;28604;51.204;22.552;2022-10-19T11:17:20;4.85;;;1.75;;
42964;SDS011;28604;51.204;22.552;2022-10-19T11:19:49;6.47;;;1.63;;
42964;SDS011;28604;51.204;22.552;2022-10-19T11:30:54;3.45;;;1.40;;
42964;SDS011;28604;51.204;22.552;2022-10-19T11:36:04;3.20;;;1.30;;
42964;SDS011;28604;51.204;22.552;2022-10-19T11:44:05;5.22;;;1.85;;
42964;SDS011;28604;51.204;22.552;2022-10-19T11:52:23;1.27;;;0.50;;
42964;SDS011;28604;51.204;22.552;2022-10-19T11:57:52;1.45;;;0.82;;
42964;SDS011;28604;51.204;22.552;2022-10-19T12:00:29;4.35;;;0.77;;
42964;SDS011;28604;51.204;22.552;2022-10-19T12:14:31;1.05;;;0.60;;
42964;SDS011;28604;51.204;22.552;2022-10-19T12:17:04;3.25;;;0.68;;
42964;SDS011;28604;51.204;22.552;2022-10-19T12:19:38;2.83;;;0.68;;
42964;SDS011;28604;51.204;22.552;2022-10-19T12:22:11;4.38;;;0.63;;
42964;SDS011;28604;51.204;22.552;2022-10-19T12:27:09;2.85;;;0.95;;
42964;SDS011;28604;51.204;22.552;2022-10-19T12:29:38;1.17;;;0.93;;
42964;SDS011;28604;51.204;22.552;2022-10-19T12:32:08;3.80;;;1.40;;
42964;SDS011;28604;51.204;22.552;2022-10-19T12:42:30;4.00;;;0.30;;
42964;SDS011;28604;51.204;22.552;2022-10-19T12:45:16;2.25;;;0.30;;
42964;SDS011;28604;51.204;22.552;2022-10-19T12:53:24;3.45;;;0.40;;
42964;SDS011;28604;51.204;22.552;2022-10-19T12:58:26;3.67;;;0.77;;
42964;SDS011;28604;51.204;22.552;2022-10-19T13:01:04;0.60;;;0.40;;
42964;SDS011;28604;51.204;22.552;2022-10-19T13:03:36;0.73;;;0.65;;
42964;SDS011;28604;51.204;22.552;2022-10-19T13:06:16;3.90;;;0.60;;
42964;SDS011;28604;51.204;22.552;2022-10-19T13:11:18;0.65;;;0.20;;
42964;SDS011;28604;51.204;22.552;2022-10-19T13:13:52;4.57;;;1.27;;
42964;SDS011;28604;51.204;22.552;2022-10-19T13:21:42;0.85;;;0.70;;
42964;SDS011;28604;51.204;22.552;2022-10-19T13:24:18;0.95;;;0.68;;
42964;SDS011;28604;51.204;22.552;2022-10-19T13:40:37;2.60;;;1.00;;
42964;SDS011;28604;51.204;22.552;2022-10-19T13:43:27;5.63;;;0.60;;
42964;SDS011;28604;51.204;22.552;2022-10-19T13:51:30;1.90;;;1.20;;
42964;SDS011;28604;51.204;22.552;2022-10-19T14:05:57;1.60;;;0.93;;
42964;SDS011;28604;51.204;22.552;2022-10-19T14:14:47;2.85;;;1.23;;
42964;SDS011;28604;51.204;22.552;2022-10-19T14:17:21;1.67;;;1.05;;
42964;SDS011;28604;51.204;22.552;2022-10-19T14:19:53;0.95;;;0.70;;
42964;SDS011;28604;51.204;22.552;2022-10-19T14:27:31;2.13;;;1.27;;
42964;SDS011;28604;51.204;22.552;2022-10-19T14:29:58;2.90;;;1.00;;
42964;SDS011;28604;51.204;22.552;2022-10-19T14:32:26;2.85;;;1.13;;
42964;SDS011;28604;51.204;22.552;2022-10-19T14:34:53;2.85;;;0.90;;
42964;SDS011;28604;51.204;22.552;2022-10-19T14:37:25;1.53;;;1.20;;
42964;SDS011;28604;51.204;22.552;2022-10-19T14:40:20;0.93;;;0.90;;
42964;SDS011;28604;51.204;22.552;2022-10-19T14:42:58;2.78;;;1.13;;
42964;SDS011;28604;51.204;22.552;2022-10-19T14:45:26;3.47;;;0.98;;
42964;SDS011;28604;51.204;22.552;2022-10-19T14:48:00;2.88;;;1.77;;
42964;SDS011;28604;51.204;22.552;2022-10-19T14:50:48;1.60;;;1.10;;
42964;SDS011;28604;51.204;22.552;2022-10-19T14:53:20;5.43;;;1.73;;
42964;SDS011;28604;51.204;22.552;2022-10-19T14:55:48;7.38;;;1.90;;
42964;SDS011;28604;51.204;22.552;2022-10-19T14:58:16;4.00;;;2.25;;
42964;SDS011;28604;51.204;22.552;2022-10-19T15:00:45;4.35;;;2.03;;
42964;SDS011;28604;51.204;22.552;2022-10-19T15:03:19;3.15;;;1.15;;
42964;SDS011;28604;51.204;22.552;2022-10-19T15:05:49;2.05;;;1.08;;
42964;SDS011;28604;51.204;22.552;2022-10-19T15:08:31;2.60;;;1.50;;
42964;SDS011;28604;51.204;22.552;2022-10-19T15:11:19;3.80;;;1.98;;
42964;SDS011;28604;51.204;22.552;2022-10-19T15:13:46;5.68;;;3.25;;
42964;SDS011;28604;51.204;22.552;2022-10-19T15:19:27;1.70;;;1.10;;
42964;SDS011;28604;51.204;22.552;2022-10-19T15:27:33;3.03;;;1.67;;
42964;SDS011;28604;51.204;22.552;2022-10-19T15:30:02;2.13;;;0.77;;
42964;SDS011;28604;51.204;22.552;2022-10-19T15:32:48;3.30;;;0.93;;
42964;SDS011;28604;51.204;22.552;2022-10-19T15:35:28;4.05;;;1.70;;
42964;SDS011;28604;51.204;22.552;2022-10-19T15:40:43;5.75;;;2.17;;
42964;SDS011;28604;51.204;22.552;2022-10-19T15:46:01;1.27;;;1.10;;
42964;SDS011;28604;51.204;22.552;2022-10-19T15:53:54;3.53;;;1.55;;
42964;SDS011;28604;51.204;22.552;2022-10-19T15:56:22;3.55;;;1.52;;
42964;SDS011;28604;51.204;22.552;2022-10-19T15:58:49;1.73;;;0.93;;
42964;SDS011;28604;51.204;22.552;2022-10-19T16:01:22;1.60;;;1.45;;
42964;SDS011;28604;51.204;22.552;2022-10-19T16:03:50;6.03;;;1.60;;
42964;SDS011;28604;51.204;22.552;2022-10-19T16:06:17;5.50;;;1.83;;
42964;SDS011;28604;51.204;22.552;2022-10-19T16:08:44;3.60;;;1.77;;
42964;SDS011;28604;51.204;22.552;2022-10-19T16:11:11;4.60;;;3.10;;
42964;SDS011;28604;51.204;22.552;2022-10-19T16:13:39;6.55;;;2.08;;
42964;SDS011;28604;51.204;22.552;2022-10-19T16:16:09;3.55;;;2.30;;
42964;SDS011;28604;51.204;22.552;2022-10-19T16:18:39;3.97;;;1.90;;
42964;SDS011;28604;51.204;22.552;2022-10-19T16:21:06;4.40;;;2.38;;
42964;SDS011;28604;51.204;22.552;2022-10-19T16:23:31;3.63;;;1.90;;
42964;SDS011;28604;51.204;22.552;2022-10-19T16:26:00;1.98;;;1.02;;
42964;SDS011;28604;51.204;22.552;2022-10-19T16:28:26;1.83;;;0.88;;
42964;SDS011;28604;51.204;22.552;2022-10-19T16:30:53;1.45;;;0.98;;
42964;SDS011;28604;51.204;22.552;2022-10-19T16:33:19;1.35;;;0.95;;
42964;SDS011;28604;51.204;22.552;2022-10-19T16:35:45;1.05;;;0.90;;
42964;SDS011;28604;51.204;22.552;2022-10-19T16:38:11;2.22;;;0.90;;
42964;SDS011;28604;51.204;22.552;2022-10-19T16:40:37;1.15;;;1.05;;
42964;SDS011;28604;51.204;22.552;2022-10-19T16:43:03;4.75;;;0.93;;
42964;SDS011;28604;51.204;22.552;2022-10-19T16:45:30;3.45;;;1.17;;
42964;SDS011;28604;51.204;22.552;2022-10-19T16:47:55;2.20;;;1.48;;
42964;SDS011;28604;51.204;22.552;2022-10-19T16:50:21;2.50;;;1.40;;
42964;SDS011;28604;51.204;22.552;2022-10-19T16:52:50;1.33;;;0.93;;
42964;SDS011;28604;51.204;22.552;2022-10-19T16:55:40;6.25;;;1.55;;
42964;SDS011;28604;51.204;22.552;2022-10-19T16:58:06;4.43;;;1.15;;
42964;SDS011;28604;51.204;22.552;2022-10-19T17:00:32;1.88;;;1.27;;
42964;SDS011;28604;51.204;22.552;2022-10-19T17:02:59;1.90;;;1.13;;
42964;SDS011;28604;51.204;22.552;2022-10-19T17:05:25;4.78;;;0.80;;
42964;SDS011;28604;51.204;22.552;2022-10-19T17:07:51;1.40;;;0.90;;
42964;SDS011;28604;51.204;22.552;2022-10-19T17:10:17;2.42;;;1.25;;
42964;SDS011;28604;51.204;22.552;2022-10-19T17:12:43;4.15;;;1.17;;
42964;SDS011;28604;51.204;22.552;2022-10-19T17:15:09;3.05;;;1.70;;
42964;SDS011;28604;51.204;22.552;2022-10-19T17:17:35;1.83;;;1.67;;
42964;SDS011;28604;51.204;22.552;2022-10-19T17:20:01;4.15;;;2.53;;
42964;SDS011;28604;51.204;22.552;2022-10-19T17:22:27;6.32;;;3.58;;
42964;SDS011;28604;51.204;22.552;2022-10-19T17:24:53;3.97;;;2.85;;
42964;SDS011;28604;51.204;22.552;2022-10-19T17:27:20;6.68;;;4.13;;
42964;SDS011;28604;51.204;22.552;2022-10-19T17:29:46;6.68;;;3.13;;
42964;SDS011;28604;51.204;22.552;2022-10-19T17:32:12;6.10;;;2.90;;
42964;SDS011;28604;51.204;22.552;2022-10-19T17:34:38;5.95;;;3.08;;